Time;durP1;ratioP1;P1;durP2;ratioP2;P2;SDS_P1;SDS_P2;PMS_P1;PMS_P2;Temp;Humidity;BMP_temperature;BMP_pressure;BME280_temperature;BME280_humidity;BME280_pressure;Samples;Min_cycle;Max_cycle;Signal;HPM_P1;HPM_P2
2021/12/12 00:00:09;;;;;;;18.97;9.70;;;1.50;99.90;;;-0.65;92.38;99970.69;10395389;28;97870;-80
2021/12/12 00:05:16;;;;;;;18.77;9.80;;;1.50;99.90;;;-0.63;92.43;99971.41;10391239;28;97686;-80
2021/12/12 00:10:25;;;;;;;18.13;9.70;;;1.50;99.90;;;-0.60;92.33;99973.84;10366022;28;97459;-80
2021/12/12 00:15:28;;;;;;;20.30;9.73;;;1.50;99.90;;;-0.55;92.20;99963.06;10388082;28;97110;-80
2021/12/12 00:20:33;;;;;;;19.57;9.80;;;1.60;99.90;;;-0.53;91.66;99989.91;10382422;28;96582;-80
2021/12/12 00:25:46;;;;;;;21.03;10.37;;;1.60;99.90;;;-0.52;91.78;99994.19;10411980;28;96678;-80
2021/12/12 00:30:54;;;;;;;19.90;10.60;;;1.60;99.90;;;-0.58;91.89;99999.81;10390945;28;98127;-80
2021/12/12 00:35:57;;;;;;;18.43;9.83;;;1.60;99.90;;;-0.56;91.33;99993.53;10385783;28;96531;-80
2021/12/12 00:41:09;;;;;;;22.67;10.53;;;1.60;99.90;;;-0.60;91.12;99999.94;10377396;28;96535;-80
2021/12/12 00:46:13;;;;;;;21.55;10.68;;;1.60;99.90;;;-0.65;90.85;99996.78;10366338;28;97526;-80
2021/12/12 00:51:27;;;;;;;22.80;11.83;;;1.50;99.90;;;-0.76;90.58;99991.44;10406355;28;97494;-81
2021/12/12 00:56:30;;;;;;;23.60;10.43;;;1.40;99.90;;;-0.86;90.86;99987.75;10389512;28;96543;-80
2021/12/12 01:01:44;;;;;;;24.00;11.90;;;1.30;99.90;;;-0.90;90.57;99996.69;10381229;28;96938;-81
2021/12/12 01:06:51;;;;;;;26.07;12.60;;;1.30;99.90;;;-1.01;90.88;99984.38;10420998;28;96529;-81
2021/12/12 01:12:00;;;;;;;25.27;11.70;;;1.20;99.90;;;-1.11;90.69;99997.16;10399786;28;97306;-81
2021/12/12 01:17:13;;;;;;;25.97;12.93;;;1.10;99.90;;;-1.17;91.25;100000.16;10394395;28;96532;-80
2021/12/12 01:22:25;;;;;;;23.57;12.57;;;1.00;99.90;;;-1.21;91.47;100016.09;10393268;28;96539;-80
2021/12/12 01:27:28;;;;;;;26.13;12.13;;;1.00;99.90;;;-1.25;91.71;100018.06;10408725;28;96699;-80
2021/12/12 01:32:33;;;;;;;26.97;12.50;;;0.90;99.90;;;-1.22;92.19;100017.88;10384534;27;96679;-80
2021/12/12 01:37:39;;;;;;;23.87;11.87;;;1.00;99.90;;;-1.14;92.24;100030.41;10378765;28;96549;-80
2021/12/12 01:42:53;;;;;;;24.23;12.20;;;1.00;99.90;;;-1.04;91.83;100021.06;10378598;28;97783;-80
2021/12/12 01:48:14;;;;;;;24.03;11.90;;;1.10;99.90;;;-0.92;91.88;100014.22;10377248;28;96908;-79
2021/12/12 01:53:22;;;;;;;25.33;12.30;;;1.20;99.90;;;-0.77;91.24;100028.06;10418875;28;96795;-79
2021/12/12 01:58:31;;;;;;;22.40;12.00;;;1.30;99.90;;;-0.67;90.84;100031.72;10400262;28;96553;-81
2021/12/12 02:03:40;;;;;;;22.73;11.67;;;1.40;99.90;;;-0.55;89.98;100033.53;10400578;28;96673;-79
2021/12/12 02:08:44;;;;;;;22.07;10.83;;;1.50;99.90;;;-0.44;89.40;100035.44;10418175;27;96980;-80
2021/12/12 02:13:51;;;;;;;21.73;10.80;;;1.60;99.90;;;-0.39;88.69;100049.03;10397823;28;96963;-82
2021/12/12 02:18:58;;;;;;;23.83;10.87;;;1.70;99.90;;;-0.37;88.45;100042.75;10412324;28;97129;-80
2021/12/12 02:40:01;;;;;;;21.67;10.20;;;1.70;99.90;;;-0.35;87.13;100011.34;10412135;28;97128;-82
2021/12/12 02:45:08;;;;;;;24.17;11.27;;;1.80;99.90;;;-0.30;87.05;100014.44;10383075;28;96619;-82
2021/12/12 02:50:28;;;;;;;23.97;10.93;;;1.80;99.90;;;-0.25;86.53;100019.38;10392559;28;96460;-82
2021/12/12 02:55:38;;;;;;;26.97;12.33;;;1.80;99.90;;;-0.23;86.63;100034.03;10410677;28;98139;-81
2021/12/12 03:01:13;;;;;;;23.53;11.07;;;1.90;99.90;;;-0.24;86.33;100039.31;10375780;28;96601;-81
2021/12/12 03:06:23;;;;;;;21.47;10.53;;;1.90;99.90;;;-0.28;86.25;100033.47;10379822;28;96619;-81
2021/12/12 03:11:27;;;;;;;26.33;11.60;;;1.90;99.90;;;-0.25;86.20;100048.09;10380559;28;96607;-80
2021/12/12 03:16:31;;;;;;;21.80;11.07;;;1.90;99.90;;;-0.31;86.49;100063.22;10399779;27;96772;-80
2021/12/12 03:21:42;;;;;;;27.40;13.13;;;1.90;99.90;;;-0.45;86.49;100065.94;10375089;28;96640;-81
2021/12/12 03:26:48;;;;;;;27.70;12.17;;;1.80;99.90;;;-0.55;86.73;100076.13;10387289;28;97422;-81
2021/12/12 03:32:00;;;;;;;25.27;12.63;;;1.70;99.90;;;-0.68;86.97;100077.03;10382649;28;96686;-80
2021/12/12 03:37:10;;;;;;;23.83;12.53;;;1.60;99.90;;;-0.79;87.50;100082.94;10377049;28;96591;-80
2021/12/12 03:42:18;;;;;;;31.07;15.13;;;1.50;99.90;;;-0.87;87.70;100093.88;10381720;28;96576;-80
2021/12/12 03:47:29;;;;;;;30.10;13.40;;;1.40;99.90;;;-1.00;88.20;100106.03;10381607;28;96953;-80
2021/12/12 03:52:33;;;;;;;26.10;13.00;;;1.30;99.90;;;-1.00;88.67;100116.44;10374070;28;96736;-80
2021/12/12 03:57:36;;;;;;;25.40;11.93;;;1.30;99.90;;;-1.05;88.95;100130.72;10357877;28;97117;-80
2021/12/12 04:02:39;;;;;;;25.77;11.23;;;1.20;99.90;;;-1.14;89.15;100134.72;10377002;28;96880;-80
2021/12/12 04:07:44;;;;;;;27.13;12.50;;;1.20;99.90;;;-1.22;89.53;100153.44;10378020;28;96868;-80
2021/12/12 04:12:48;;;;;;;26.13;12.77;;;1.10;99.90;;;-1.26;89.41;100151.97;10372411;28;97711;-81
2021/12/12 04:17:52;;;;;;;24.30;11.60;;;1.10;99.90;;;-1.27;89.74;100150.28;10411533;28;97501;-81
2021/12/12 04:22:55;;;;;;;31.97;13.73;;;1.00;99.90;;;-1.27;89.55;100157.25;10376041;27;97039;-80
2021/12/12 04:27:58;;;;;;;24.33;11.90;;;1.00;99.90;;;-1.26;90.07;100169.38;10379153;28;96465;-80
2021/12/12 04:33:01;;;;;;;24.60;12.00;;;1.00;99.90;;;-1.24;89.90;100173.56;10385467;27;97099;-80
2021/12/12 04:38:05;;;;;;;26.00;11.83;;;1.00;99.90;;;-1.22;89.78;100163.03;10419369;28;96436;-80
2021/12/12 04:43:08;;;;;;;23.70;11.30;;;1.00;99.90;;;-1.23;89.87;100163.97;10394977;28;97292;-80
2021/12/12 04:54:53;;;;;;;29.57;12.53;;;1.00;99.90;;;-1.20;89.30;100163.78;10394620;28;96636;-80
2021/12/12 05:00:16;;;;;;;24.50;11.77;;;1.00;99.90;;;-1.18;89.32;100160.16;10403554;27;97102;-80
2021/12/12 05:05:36;;;;;;;25.53;12.03;;;1.00;99.90;;;-1.16;89.00;100157.44;10389822;28;97053;-79
2021/12/12 05:11:05;;;;;;;22.43;11.50;;;1.00;99.90;;;-1.12;88.52;100146.75;10414688;28;96660;-79
2021/12/12 05:16:16;;;;;;;28.93;12.37;;;1.00;99.90;;;-1.04;87.55;100150.63;10386026;28;97201;-80
2021/12/12 05:21:32;;;;;;;23.17;10.43;;;1.10;99.90;;;-1.02;87.19;100156.59;10396156;28;96711;-80
2021/12/12 05:26:43;;;;;;;27.17;12.50;;;1.10;99.90;;;-1.05;87.29;100167.22;10418033;28;96479;-80
2021/12/12 05:31:49;;;;;;;26.97;12.73;;;1.10;99.90;;;-1.10;86.94;100163.13;10384196;28;97000;-81
2021/12/12 05:36:53;;;;;;;25.33;11.00;;;1.00;99.90;;;-1.15;86.86;100152.13;10377928;28;96549;-81
2021/12/12 05:41:57;;;;;;;25.07;11.47;;;1.00;99.90;;;-1.14;86.59;100156.44;10409775;27;96995;-81
2021/12/12 05:47:05;;;;;;;25.87;11.30;;;1.00;99.90;;;-1.14;86.33;100158.19;10386553;28;96467;-80
2021/12/12 05:52:16;;;;;;;27.37;12.37;;;1.00;99.90;;;-1.11;85.99;100164.06;10401949;28;97034;-80
2021/12/12 05:57:25;;;;;;;23.50;11.52;;;1.00;99.90;;;-1.14;85.91;100172.09;10368701;28;98286;-81
2021/12/12 06:02:28;;;;;;;24.57;10.77;;;1.00;99.90;;;-1.18;86.64;100190.63;10380912;28;96493;-80
2021/12/12 06:07:33;;;;;;;24.70;11.57;;;1.00;99.90;;;-1.26;86.91;100192.81;10396685;28;97101;-80
2021/12/12 06:12:37;;;;;;;25.40;11.57;;;1.00;99.90;;;-1.29;86.84;100199.09;10403545;28;96547;-80
2021/12/12 06:17:41;;;;;;;27.87;13.17;;;0.90;99.90;;;-1.29;86.58;100213.88;10380279;28;96568;-80
2021/12/12 06:22:44;;;;;;;25.90;11.00;;;0.90;99.90;;;-1.29;86.75;100200.84;10391489;28;96578;-80
2021/12/12 06:27:48;;;;;;;29.07;13.90;;;0.90;99.90;;;-1.29;86.27;100204.28;10389622;28;96472;-79
2021/12/12 06:32:53;;;;;;;25.53;11.57;;;0.90;99.90;;;-1.30;86.24;100207.84;10394487;28;96639;-80
2021/12/12 06:38:11;;;;;;;24.17;10.43;;;0.80;99.90;;;-1.31;86.00;100210.53;10395492;28;96545;-80
2021/12/12 06:43:19;;;;;;;27.43;14.77;;;0.80;99.90;;;-1.33;86.39;100217.59;10387787;28;97192;-79
2021/12/12 06:48:22;;;;;;;57.37;22.97;;;0.80;99.90;;;-1.37;86.37;100230.84;10399704;28;97935;-80
2021/12/12 06:53:29;;;;;;;26.10;12.67;;;0.80;99.90;;;-1.37;86.02;100238.66;10404098;28;96660;-79
2021/12/12 06:58:34;;;;;;;27.10;12.40;;;0.80;99.90;;;-1.37;86.18;100222.19;10375622;28;96572;-80
2021/12/12 07:03:40;;;;;;;22.93;11.20;;;0.80;99.90;;;-1.37;86.77;100223.00;10393381;28;97454;-80
2021/12/12 07:08:44;;;;;;;25.03;12.60;;;0.80;99.90;;;-1.31;86.51;100232.25;10385550;28;96781;-82
2021/12/12 07:13:50;;;;;;;23.27;11.10;;;0.80;99.90;;;-1.30;87.12;100214.81;10390242;28;98373;-79
2021/12/12 07:18:55;;;;;;;63.43;29.10;;;0.80;99.90;;;-1.28;87.26;100215.56;10388057;28;96667;-80
2021/12/12 07:24:04;;;;;;;48.27;26.37;;;0.90;99.90;;;-1.28;87.31;100216.41;10385328;28;97316;-79
2021/12/12 07:29:10;;;;;;;146.47;72.20;;;0.90;99.90;;;-1.23;87.57;100209.13;10389898;28;96817;-78
2021/12/12 07:34:16;;;;;;;43.70;18.90;;;0.90;99.90;;;-1.13;87.40;100196.38;10381193;27;96958;-79
2021/12/12 07:39:22;;;;;;;23.50;12.27;;;1.00;99.90;;;-1.00;86.39;100184.28;10405699;28;96643;-79
2021/12/12 07:44:31;;;;;;;22.10;10.03;;;1.10;99.90;;;-0.84;85.70;100174.56;10388760;28;96650;-82
2021/12/12 07:49:40;;;;;;;21.13;9.90;;;1.30;99.90;;;-0.73;84.38;100180.88;10391113;28;96601;-78
2021/12/12 07:54:45;;;;;;;21.47;9.87;;;1.40;99.90;;;-0.62;84.04;100207.97;10411716;28;96876;-78
2021/12/12 07:59:50;;;;;;;22.40;10.80;;;1.50;99.90;;;-0.53;82.76;100214.41;10414993;28;97141;-80
2021/12/12 08:04:55;;;;;;;23.77;11.37;;;1.50;99.90;;;-0.45;82.61;100214.72;10395416;28;97335;-78
2021/12/12 08:09:58;;;;;;;18.43;9.37;;;1.60;99.90;;;-0.34;80.96;100219.28;10420964;28;97050;-79
2021/12/12 08:15:06;;;;;;;16.70;7.93;;;1.70;99.90;;;-0.27;80.58;100221.41;10405718;28;96512;-79
2021/12/12 08:20:13;;;;;;;15.03;8.00;;;1.80;99.90;;;-0.21;80.25;100217.56;10415485;28;96567;-79
2021/12/12 08:25:18;;;;;;;15.63;7.73;;;1.90;99.90;;;-0.14;80.04;100212.78;10397820;28;96918;-79
2021/12/12 08:30:22;;;;;;;19.33;8.73;;;1.90;99.90;;;-0.03;79.87;100215.53;10417951;28;97953;-79
2021/12/12 08:35:27;;;;;;;17.90;7.83;;;2.00;99.90;;;0.12;79.23;100217.16;10414023;28;96634;-79
2021/12/12 08:40:36;;;;;;;16.03;7.47;;;2.20;99.90;;;0.24;78.58;100216.34;10410314;28;96689;-79
2021/12/12 08:45:51;;;;;;;16.27;8.93;;;2.30;99.90;;;0.32;78.94;100217.59;10388816;28;96726;-82
2021/12/12 08:51:02;;;;;;;22.33;10.10;;;2.40;99.90;;;0.35;78.37;100205.16;10400537;28;97122;-79
2021/12/12 08:56:08;;;;;;;19.00;9.40;;;2.40;99.90;;;0.36;78.32;100214.69;10410775;28;97569;-79
2021/12/12 09:01:16;;;;;;;18.17;9.73;;;2.40;99.90;;;0.41;78.86;100211.75;10390707;28;96662;-79
2021/12/12 09:06:29;;;;;;;15.80;7.83;;;2.50;99.90;;;0.77;77.66;100211.88;10416066;27;96666;-80
2021/12/12 09:11:44;;;;;;;;;;;2.80;99.90;;;1.29;75.76;100204.78;10407990;28;97733;-80
2021/12/12 09:16:56;;;;;;;26.83;10.87;;;3.20;99.90;;;1.53;74.96;100208.28;10394342;27;96562;-80
2021/12/12 09:22:29;;;;;;;15.50;7.57;;;3.50;99.90;;;1.57;74.17;100199.28;10389682;27;96667;-80
2021/12/12 09:27:40;;;;;;;14.63;7.33;;;3.60;99.90;;;1.57;73.57;100198.44;10399260;28;96659;-80
2021/12/12 09:33:05;;;;;;;13.05;6.68;;;3.70;99.90;;;1.57;73.44;100195.81;10389035;28;96577;-80
2021/12/12 09:38:39;;;;;;;21.93;9.20;;;3.70;99.90;;;1.59;72.95;100186.06;10395866;28;96804;-80
2021/12/12 09:44:17;;;;;;;17.73;8.63;;;3.70;99.90;;;1.63;73.16;100186.69;10390296;28;97157;-80
2021/12/12 09:55:29;;;;;;;;;;;3.80;99.90;;;1.76;72.61;100180.44;10406572;28;96714;-80
2021/12/12 10:01:07;;;;;;;12.10;6.17;;;3.80;99.90;;;1.86;72.22;100188.47;10407797;28;98191;-80
2021/12/12 10:06:32;;;;;;;11.53;5.93;;;3.90;99.90;;;1.93;72.33;100173.13;10379150;28;97155;-80
2021/12/12 10:12:02;;;;;;;12.77;5.93;;;4.00;99.90;;;1.98;71.71;100181.47;10361480;28;96551;-80
2021/12/12 10:17:34;;;;;;;10.03;5.50;;;4.10;99.90;;;2.06;71.91;100168.63;10391206;28;96561;-80
2021/12/12 10:23:12;;;;;;;;;;;4.10;99.90;;;2.15;71.40;100178.41;10394771;28;96628;-81
2021/12/12 10:28:26;;;;;;;11.97;6.23;;;4.20;99.90;;;2.21;71.72;100179.75;10379567;28;96651;-81
2021/12/12 10:33:40;;;;;;;10.73;5.60;;;4.30;99.90;;;2.26;71.45;100180.25;10377689;28;96567;-80
2021/12/12 10:39:05;;;;;;;12.10;6.00;;;4.30;99.90;;;2.29;71.38;100191.34;10383955;28;96666;-80
2021/12/12 10:44:32;;;;;;;10.93;6.10;;;4.40;99.90;;;2.37;71.56;100181.13;10388098;28;96505;-81
2021/12/12 10:50:04;;;;;;;8.17;4.90;;;4.50;99.90;;;2.82;70.75;100180.31;10387039;28;96754;-81
2021/12/12 10:55:33;;;;;;;8.93;5.13;;;4.80;99.90;;;2.93;69.26;100177.72;10401969;28;97570;-81
2021/12/12 11:00:46;;;;;;;25.60;10.93;;;4.90;99.90;;;2.99;69.10;100165.91;10390806;28;97287;-81
2021/12/12 11:06:37;;;;;;;7.83;4.47;;;5.00;99.90;;;2.98;67.78;100172.09;10381764;28;98478;-81
2021/12/12 11:11:59;;;;;;;11.10;4.23;;;5.00;99.90;;;2.88;67.57;100172.00;10384737;28;98533;-81
2021/12/12 11:17:17;;;;;;;6.05;3.00;;;5.00;99.90;;;2.78;68.12;100179.75;10390318;28;97684;-81
2021/12/12 11:22:28;;;;;;;9.07;4.23;;;4.90;99.90;;;2.71;68.08;100165.44;10410948;28;96541;-82
2021/12/12 11:27:43;;;;;;;9.00;3.97;;;4.80;99.90;;;2.67;68.42;100177.94;10376695;28;96547;-80
2021/12/12 11:32:46;;;;;;;9.10;3.80;;;4.70;99.90;;;2.64;68.03;100175.56;10382868;28;97240;-81
2021/12/12 11:37:57;;;;;;;7.37;3.87;;;4.70;99.90;;;2.61;68.20;100173.16;10382154;28;96463;-81
2021/12/12 11:43:17;;;;;;;9.00;4.07;;;4.70;99.90;;;2.60;67.88;100176.75;10409153;27;96897;-83
2021/12/12 11:48:36;;;;;;;11.57;4.73;;;4.70;99.70;;;2.59;68.05;100184.75;10400576;28;96691;-81
2021/12/12 11:53:48;;;;;;;7.73;3.93;;;4.70;99.80;;;2.57;68.01;100171.72;10387422;28;96555;-81
2021/12/12 11:59:15;;;;;;;6.17;3.57;;;4.70;99.60;;;2.57;67.07;100170.88;10413067;27;96485;-80
2021/12/12 12:04:36;;;;;;;6.87;3.67;;;4.60;99.10;;;2.57;67.48;100161.22;10399352;28;96551;-81
2021/12/12 12:10:04;;;;;;;7.37;3.90;;;4.60;98.90;;;2.56;67.72;100158.72;10396645;28;96657;-81
2021/12/12 12:15:34;;;;;;;9.80;4.10;;;4.60;99.10;;;2.54;67.90;100163.28;10382745;28;98333;-79
2021/12/12 12:20:55;;;;;;;7.47;2.93;;;4.60;98.70;;;2.51;68.00;100171.34;10413144;28;96848;-80
2021/12/12 12:32:07;;;;;;;10.50;5.00;;;4.50;98.40;;;2.39;68.20;100155.59;10407811;28;98705;-80
2021/12/12 12:38:06;;;;;;;6.33;2.73;;;4.50;99.00;;;2.36;67.87;100163.72;10412479;27;96490;-82
2021/12/12 12:44:10;;;;;;;6.83;3.30;;;4.40;99.10;;;2.36;67.88;100165.50;10398280;28;96555;-80
2021/12/12 12:50:27;;;;;;;10.47;5.67;;;4.50;98.80;;;2.31;68.33;100171.09;10389642;28;96678;-79
2021/12/12 12:56:08;;;;;;;9.83;3.73;;;4.40;99.20;;;2.26;67.94;100167.97;10373026;28;96879;-79
2021/12/12 13:01:25;;;;;;;7.13;3.67;;;4.40;98.60;;;2.24;67.96;100172.50;10338492;28;96743;-79
2021/12/12 13:07:09;;;;;;;17.17;6.43;;;4.30;98.60;;;2.19;68.08;100179.03;10399145;27;96594;-79
2021/12/12 13:12:37;;;;;;;16.27;6.73;;;4.30;98.80;;;2.14;68.30;100174.13;10402191;28;97575;-79
2021/12/12 13:18:09;;;;;;;12.13;5.70;;;4.20;98.50;;;2.08;68.63;100185.91;10419498;27;96625;-79
2021/12/12 13:23:27;;;;;;;6.90;3.90;;;4.20;98.90;;;2.05;68.45;100187.94;10397120;28;98493;-79
2021/12/12 13:29:14;;;;;;;8.47;3.80;;;4.20;98.80;;;2.04;68.33;100204.59;10377147;28;96577;-80
2021/12/12 13:34:30;;;;;;;9.53;4.57;;;4.10;98.70;;;2.04;68.95;100208.06;10408222;28;98252;-79
2021/12/12 13:40:25;;;;;;;9.03;4.23;;;4.10;99.00;;;2.09;68.23;100210.34;10400050;28;96739;-79
2021/12/12 13:45:34;;;;;;;8.90;4.20;;;4.20;98.90;;;2.09;67.94;100226.91;10384606;28;96817;-80
2021/12/12 13:51:22;;;;;;;9.00;5.07;;;4.20;98.80;;;2.10;68.01;100223.34;10399449;28;97752;-79
2021/12/12 13:57:01;;;;;;;7.33;4.33;;;4.20;98.70;;;2.11;67.53;100225.03;10380232;28;96536;-79
2021/12/12 14:02:09;;;;;;;14.43;6.03;;;4.20;98.20;;;2.13;67.55;100232.75;10382930;28;96550;-79
2021/12/12 14:07:15;;;;;;;17.47;7.67;;;4.20;98.40;;;2.13;67.80;100235.38;10394660;28;96630;-79
2021/12/12 14:12:21;;;;;;;8.13;4.83;;;4.20;98.30;;;2.14;67.79;100234.44;10395301;28;97158;-79
2021/12/12 14:17:28;;;;;;;17.53;10.03;;;4.30;98.30;;;2.07;67.52;100238.47;10394390;28;96841;-79
2021/12/12 14:22:31;;;;;;;10.23;4.83;;;4.20;98.20;;;1.97;67.50;100243.53;10374454;28;98112;-79
2021/12/12 14:27:40;;;;;;;10.77;5.03;;;4.10;97.90;;;1.92;67.55;100250.03;10407457;28;96636;-79
2021/12/12 14:32:51;;;;;;;8.33;4.10;;;4.00;98.00;;;1.86;67.39;100253.97;10383909;28;96545;-79
2021/12/12 14:37:56;;;;;;;11.83;4.57;;;4.00;97.90;;;1.82;67.10;100255.97;10379026;28;97064;-78
2021/12/12 14:43:26;;;;;;;18.27;7.33;;;4.00;96.90;;;1.72;67.59;100265.44;10379881;28;96497;-78
2021/12/12 14:48:44;;;;;;;15.73;6.57;;;3.90;97.30;;;1.61;67.59;100260.94;10372322;28;96635;-78
2021/12/12 14:54:12;;;;;;;9.40;5.10;;;3.80;97.20;;;1.46;68.32;100267.28;10379639;28;96606;-78
2021/12/12 14:59:27;;;;;;;65.13;23.47;;;3.60;97.90;;;1.31;69.15;100286.69;10381952;28;98131;-79
2021/12/12 15:04:41;;;;;;;26.67;10.83;;;3.50;98.60;;;1.16;69.42;100303.44;10387745;28;96538;-78
2021/12/12 15:10:03;;;;;;;17.70;7.90;;;3.40;98.50;;;1.03;69.69;100303.47;10382026;28;98150;-79
2021/12/12 15:15:16;;;;;;;;;;;3.30;99.70;;;0.96;70.46;100326.59;10380026;28;96961;-79
2021/12/12 15:21:27;;;;;;;12.10;6.53;;;3.20;99.80;;;0.80;70.86;100320.69;10397675;28;96774;-79
2021/12/12 15:26:43;;;;;;;21.93;9.70;;;3.10;99.90;;;0.69;71.33;100331.88;10345265;27;96687;-78
2021/12/12 15:31:50;;;;;;;13.83;6.60;;;2.90;99.90;;;0.61;72.12;100341.19;10405940;28;97207;-79
2021/12/12 15:37:03;;;;;;;14.30;6.83;;;2.90;99.90;;;0.49;72.43;100343.66;10380722;28;96642;-79
2021/12/12 15:42:12;;;;;;;9.93;4.73;;;2.70;99.90;;;0.46;71.93;100366.53;10387876;28;98077;-84
2021/12/12 15:47:21;;;;;;;7.60;4.23;;;2.70;99.90;;;0.41;71.90;100363.38;10385513;28;96975;-83
2021/12/12 15:52:34;;;;;;;11.77;5.90;;;2.70;99.90;;;0.34;72.21;100368.16;10387888;28;96726;-81
2021/12/12 15:57:41;;;;;;;7.17;3.90;;;2.60;99.90;;;0.32;72.22;100385.72;10370287;28;97138;-82
2021/12/12 16:02:46;;;;;;;8.67;4.17;;;2.60;99.90;;;0.40;71.64;100386.06;10401824;27;96587;-83
2021/12/12 16:07:54;;;;;;;10.07;3.90;;;2.60;99.90;;;0.45;71.54;100393.63;10390267;28;96626;-83
2021/12/12 16:13:00;;;;;;;8.97;4.20;;;2.60;99.90;;;0.49;71.63;100405.56;10384459;28;98021;-84
2021/12/12 16:18:05;;;;;;;12.53;7.00;;;2.70;99.90;;;0.65;70.66;100423.72;10403686;28;96631;-86
2021/12/12 16:23:11;;;;;;;11.80;5.97;;;2.80;99.90;;;0.78;70.55;100415.00;10375951;28;96737;-78
2021/12/12 16:28:20;;;;;;;6.13;3.60;;;2.90;99.90;;;0.88;69.86;100425.66;10357203;28;96477;-78
2021/12/12 16:33:51;;;;;;;7.10;3.67;;;3.00;99.90;;;1.01;68.64;100437.00;10308756;28;97054;-78
2021/12/12 16:38:54;;;;;;;10.37;5.63;;;3.10;99.90;;;1.07;69.61;100438.38;10354172;28;96645;-78
2021/12/12 16:44:00;;;;;;;10.17;6.57;;;3.20;99.90;;;1.09;69.83;100440.91;10328176;28;97518;-78
2021/12/12 16:49:06;;;;;;;6.43;3.43;;;3.20;99.90;;;1.09;70.32;100441.75;10325478;28;96517;-80
2021/12/12 16:54:39;;;;;;;7.80;3.73;;;3.30;99.90;;;1.15;69.88;100441.34;10332954;28;96771;-80
2021/12/12 16:59:46;;;;;;;9.33;4.60;;;3.30;99.90;;;1.22;69.54;100447.00;10338138;28;96542;-79
2021/12/12 17:04:52;;;;;;;13.30;6.27;;;3.40;99.90;;;1.24;70.03;100459.03;10306903;28;96651;-80
2021/12/12 17:09:59;;;;;;;17.20;8.10;;;3.40;99.90;;;1.26;69.77;100458.94;10362292;28;96483;-80
2021/12/12 17:15:28;;;;;;;15.60;6.30;;;3.40;99.90;;;1.26;70.45;100465.03;10350726;28;98545;-80
2021/12/12 17:20:43;;;;;;;9.37;4.60;;;3.40;99.90;;;1.32;68.34;100467.25;10376406;28;98479;-80
2021/12/12 17:25:49;;;;;;;12.90;5.53;;;3.50;99.90;;;1.34;68.76;100475.84;10369100;28;98471;-80
2021/12/12 17:31:08;;;;;;;19.57;8.10;;;3.50;99.90;;;1.30;68.29;100479.59;10372319;28;97395;-80
2021/12/12 17:36:23;;;;;;;15.77;6.30;;;3.50;99.80;;;1.21;68.89;100485.44;10393748;28;96563;-80
2021/12/12 17:41:49;;;;;;;13.13;6.27;;;3.40;99.90;;;1.06;68.54;100486.44;10388481;28;97054;-80
2021/12/12 17:47:05;;;;;;;24.77;7.97;;;3.30;99.90;;;0.90;68.35;100488.34;10342861;28;98053;-80
2021/12/12 17:52:27;;;;;;;32.00;7.87;;;3.20;99.10;;;0.73;69.03;100487.69;10406249;28;96579;-80
2021/12/12 17:57:40;;;;;;;25.00;8.48;;;3.00;99.90;;;0.53;70.11;100488.09;10410781;28;96581;-79
2021/12/12 18:02:43;;;;;;;34.80;13.23;;;2.90;99.90;;;0.26;71.73;100491.50;10402203;28;96561;-79
2021/12/12 18:08:22;;;;;;;26.23;9.67;;;2.70;99.90;;;0.03;72.48;100493.84;10379470;28;96497;-79
2021/12/12 18:13:36;;;;;;;15.87;8.50;;;2.40;99.90;;;-0.13;73.18;100510.44;10383383;28;96655;-79
2021/12/12 18:19:16;;;;;;;18.23;7.40;;;2.20;99.90;;;-0.20;74.14;100522.19;10382676;28;96655;-79
2021/12/12 18:24:29;;;;;;;17.93;8.73;;;2.10;99.90;;;-0.22;74.46;100524.06;10415179;28;96709;-79
2021/12/12 18:29:56;;;;;;;13.83;6.67;;;2.10;99.90;;;-0.19;74.18;100526.47;10361979;28;97693;-79
2021/12/12 18:35:25;;;;;;;10.40;5.37;;;2.00;99.90;;;-0.12;74.64;100530.44;10418768;28;96574;-79
2021/12/12 18:40:45;;;;;;;12.03;5.37;;;2.00;99.90;;;-0.05;74.56;100538.75;10363820;28;96632;-79
2021/12/12 18:45:49;;;;;;;12.80;5.87;;;2.10;99.90;;;0.06;74.38;100535.47;10389021;28;98255;-80
2021/12/12 18:51:19;;;;;;;12.70;5.07;;;2.20;99.90;;;0.14;74.21;100543.69;10380216;28;96515;-78
2021/12/12 18:56:46;;;;;;;11.17;4.93;;;2.20;99.90;;;0.25;73.89;100554.34;10383230;28;98451;-79
2021/12/12 19:01:56;;;;;;;11.87;5.33;;;2.40;99.90;;;0.34;73.02;100537.25;10402726;28;96473;-79
2021/12/12 19:07:07;;;;;;;10.20;5.10;;;2.40;99.90;;;0.43;72.97;100545.38;10385177;28;96620;-79
2021/12/12 19:12:10;;;;;;;9.07;4.80;;;2.50;99.90;;;0.50;72.58;100537.97;10360272;28;96535;-78
2021/12/12 19:17:18;;;;;;;8.13;4.37;;;2.60;99.90;;;0.56;72.37;100550.69;10378574;28;96524;-78
2021/12/12 19:22:29;;;;;;;10.67;5.47;;;2.60;99.90;;;0.60;72.43;100556.53;10415331;28;96517;-78
2021/12/12 19:27:37;;;;;;;13.87;6.47;;;2.70;99.90;;;0.61;73.21;100559.09;10369255;28;98286;-78
2021/12/12 19:32:42;;;;;;;14.13;6.70;;;2.70;99.90;;;0.63;73.46;100557.19;10361214;28;96699;-78
2021/12/12 19:37:54;;;;;;;11.07;5.47;;;2.80;99.90;;;0.63;73.05;100578.13;10390477;28;96793;-78
2021/12/12 19:43:06;;;;;;;12.20;4.97;;;2.80;99.90;;;0.62;72.99;100592.13;10399842;28;96406;-78
2021/12/12 19:48:11;;;;;;;10.80;3.93;;;2.80;99.90;;;0.61;72.15;100579.16;10400633;28;96629;-78
2021/12/12 19:54:08;;;;;;;9.17;4.10;;;2.80;99.90;;;0.59;71.61;100579.25;10360812;28;96601;-78
2021/12/12 19:59:17;;;;;;;7.30;3.83;;;2.70;99.90;;;0.64;71.24;100579.81;10377130;28;96461;-77
2021/12/12 20:04:29;;;;;;;11.13;5.07;;;2.80;99.90;;;0.68;71.01;100575.22;10364518;28;96507;-78
2021/12/12 20:09:50;;;;;;;15.52;6.80;;;2.80;99.90;;;0.66;71.40;100577.94;10353231;28;97589;-78
2021/12/12 20:15:03;;;;;;;12.73;5.90;;;2.80;99.90;;;0.62;71.39;100581.69;10364876;28;96512;-78
2021/12/12 20:20:20;;;;;;;7.60;4.10;;;2.80;99.90;;;0.65;71.24;100581.47;10393590;28;96833;-78
2021/12/12 20:25:38;;;;;;;7.27;3.60;;;2.80;99.90;;;0.67;70.84;100584.03;10405465;28;96681;-78
2021/12/12 20:31:05;;;;;;;9.07;4.07;;;2.80;99.90;;;0.64;70.89;100577.19;10397838;28;97915;-78
2021/12/12 20:36:16;;;;;;;7.07;4.10;;;2.80;99.90;;;0.52;70.87;100564.88;10401194;28;98365;-79
2021/12/12 20:41:28;;;;;;;9.10;4.07;;;2.70;99.90;;;0.40;70.93;100539.47;10382249;28;96751;-78
2021/12/12 20:46:41;;;;;;;8.80;3.70;;;2.60;99.90;;;0.40;70.91;100536.88;10365984;28;98311;-79
2021/12/12 20:52:05;;;;;;;7.47;4.03;;;2.60;99.90;;;0.41;71.12;100538.53;10380971;28;98270;-78
2021/12/12 20:57:40;;;;;;;14.30;4.77;;;2.50;99.90;;;0.30;71.38;100530.50;10381266;28;97905;-79
2021/12/12 21:02:45;;;;;;;12.07;5.57;;;2.50;99.90;;;0.14;72.22;100539.31;10360105;28;98449;-78
2021/12/12 21:07:53;;;;;;;8.83;4.20;;;2.40;99.90;;;0.12;72.03;100551.63;10394693;28;97416;-78
2021/12/12 21:13:03;;;;;;;12.40;4.13;;;2.30;99.90;;;0.24;71.35;100556.13;10379563;28;97049;-79
2021/12/12 21:18:13;;;;;;;9.53;4.93;;;2.40;99.90;;;0.26;71.82;100576.94;10399108;28;96804;-79
2021/12/12 21:23:30;;;;;;;10.07;4.63;;;2.40;99.90;;;0.21;72.16;100581.59;10371233;28;96640;-79
2021/12/12 21:28:41;;;;;;;8.73;4.53;;;2.40;99.90;;;0.16;72.96;100581.84;10383079;28;96634;-78
2021/12/12 21:34:02;;;;;;;5.43;2.83;;;2.40;99.90;;;0.13;72.76;100594.28;10363860;28;96556;-79
2021/12/12 21:39:26;;;;;;;9.93;4.57;;;2.30;99.90;;;0.08;73.36;100596.31;10395944;28;98450;-79
2021/12/12 21:44:33;;;;;;;9.33;4.10;;;2.30;99.90;;;0.05;73.53;100597.34;10376867;28;96609;-79
2021/12/12 21:50:18;;;;;;;6.93;3.57;;;2.20;99.90;;;0.10;73.89;100597.91;10364687;28;97793;-78
2021/12/12 21:56:01;;;;;;;8.90;5.03;;;2.30;99.90;;;0.17;73.42;100595.75;10389578;28;96506;-81
2021/12/12 22:01:22;;;;;;;8.80;4.53;;;2.30;99.90;;;0.17;73.31;100601.81;10377972;28;96699;-81
2021/12/12 22:06:29;;;;;;;7.80;4.10;;;2.40;99.90;;;0.07;73.51;100595.50;10385238;28;97820;-81
2021/12/12 22:11:49;;;;;;;11.40;4.60;;;2.30;99.90;;;-0.08;73.82;100588.53;10393713;28;97954;-81
2021/12/12 22:16:53;;;;;;;16.03;5.50;;;2.20;99.90;;;-0.24;74.45;100598.19;10394904;28;97127;-81